sensor_id;sensor_type;location;lat;lon;timestamp;P1;durP1;ratioP1;P2;durP2;ratioP2
14052;SDS011;7101;51.600;7.310;2024-03-02T00:00:56;2.85;;;1.70;;
14052;SDS011;7101;51.600;7.310;2024-03-02T00:03:24;3.33;;;1.60;;
14052;SDS011;7101;51.600;7.310;2024-03-02T00:05:51;4.45;;;1.40;;
14052;SDS011;7101;51.600;7.310;2024-03-02T00:08:23;2.95;;;1.60;;
14052;SDS011;7101;51.600;7.310;2024-03-02T00:10:54;2.60;;;1.80;;
14052;SDS011;7101;51.600;7.310;2024-03-02T00:13:24;1.63;;;1.10;;
14052;SDS011;7101;51.600;7.310;2024-03-02T00:15:51;2.38;;;1.20;;
14052;SDS011;7101;51.600;7.310;2024-03-02T00:18:20;1.98;;;1.23;;
14052;SDS011;7101;51.600;7.310;2024-03-02T00:20:53;4.38;;;2.00;;
14052;SDS011;7101;51.600;7.310;2024-03-02T00:23:21;4.03;;;1.98;;
14052;SDS011;7101;51.600;7.310;2024-03-02T00:25:49;4.05;;;1.92;;
14052;SDS011;7101;51.600;7.310;2024-03-02T00:28:19;2.38;;;1.55;;
14052;SDS011;7101;51.600;7.310;2024-03-02T00:30:51;3.20;;;1.67;;
14052;SDS011;7101;51.600;7.310;2024-03-02T00:33:25;3.30;;;1.70;;
14052;SDS011;7101;51.600;7.310;2024-03-02T00:35:55;2.85;;;1.45;;
14052;SDS011;7101;51.600;7.310;2024-03-02T00:38:22;3.63;;;1.20;;
14052;SDS011;7101;51.600;7.310;2024-03-02T00:40:49;2.58;;;1.27;;
14052;SDS011;7101;51.600;7.310;2024-03-02T00:43:35;3.00;;;1.38;;
14052;SDS011;7101;51.600;7.310;2024-03-02T00:46:07;2.08;;;1.17;;
14052;SDS011;7101;51.600;7.310;2024-03-02T00:48:35;1.60;;;0.90;;
14052;SDS011;7101;51.600;7.310;2024-03-02T00:51:03;2.88;;;1.40;;
14052;SDS011;7101;51.600;7.310;2024-03-02T00:53:31;2.03;;;1.20;;
14052;SDS011;7101;51.600;7.310;2024-03-02T00:55:58;1.90;;;1.15;;
14052;SDS011;7101;51.600;7.310;2024-03-02T00:58:25;1.65;;;1.20;;
14052;SDS011;7101;51.600;7.310;2024-03-02T01:00:52;2.83;;;1.20;;
14052;SDS011;7101;51.600;7.310;2024-03-02T01:03:19;1.45;;;1.13;;
14052;SDS011;7101;51.600;7.310;2024-03-02T01:05:46;1.77;;;1.20;;
14052;SDS011;7101;51.600;7.310;2024-03-02T01:08:14;1.35;;;0.90;;
14052;SDS011;7101;51.600;7.310;2024-03-02T01:10:41;1.85;;;1.17;;
14052;SDS011;7101;51.600;7.310;2024-03-02T01:13:08;2.35;;;1.13;;
14052;SDS011;7101;51.600;7.310;2024-03-02T01:15:35;2.45;;;1.23;;
14052;SDS011;7101;51.600;7.310;2024-03-02T01:18:02;2.40;;;1.13;;
14052;SDS011;7101;51.600;7.310;2024-03-02T01:20:29;2.38;;;1.13;;
14052;SDS011;7101;51.600;7.310;2024-03-02T01:22:55;1.42;;;1.02;;
14052;SDS011;7101;51.600;7.310;2024-03-02T01:25:24;3.47;;;1.50;;
14052;SDS011;7101;51.600;7.310;2024-03-02T01:27:51;2.25;;;1.13;;
14052;SDS011;7101;51.600;7.310;2024-03-02T01:30:18;1.80;;;1.23;;
14052;SDS011;7101;51.600;7.310;2024-03-02T01:32:45;1.38;;;1.02;;
14052;SDS011;7101;51.600;7.310;2024-03-02T01:35:11;1.75;;;1.10;;
14052;SDS011;7101;51.600;7.310;2024-03-02T01:37:39;2.35;;;1.10;;
14052;SDS011;7101;51.600;7.310;2024-03-02T01:40:07;2.08;;;1.10;;
14052;SDS011;7101;51.600;7.310;2024-03-02T01:42:37;3.13;;;1.20;;
14052;SDS011;7101;51.600;7.310;2024-03-02T01:45:04;1.98;;;1.00;;
14052;SDS011;7101;51.600;7.310;2024-03-02T01:47:32;2.33;;;1.20;;
14052;SDS011;7101;51.600;7.310;2024-03-02T01:49:59;1.85;;;1.23;;
14052;SDS011;7101;51.600;7.310;2024-03-02T01:52:26;1.50;;;0.90;;
14052;SDS011;7101;51.600;7.310;2024-03-02T01:54:54;1.40;;;0.90;;
14052;SDS011;7101;51.600;7.310;2024-03-02T01:57:21;1.40;;;1.10;;
14052;SDS011;7101;51.600;7.310;2024-03-02T01:59:49;3.85;;;1.10;;
14052;SDS011;7101;51.600;7.310;2024-03-02T02:02:16;1.75;;;0.90;;
14052;SDS011;7101;51.600;7.310;2024-03-02T02:04:43;2.28;;;1.20;;
14052;SDS011;7101;51.600;7.310;2024-03-02T02:07:10;2.63;;;0.93;;
14052;SDS011;7101;51.600;7.310;2024-03-02T02:09:39;2.95;;;0.80;;
14052;SDS011;7101;51.600;7.310;2024-03-02T02:12:06;1.70;;;0.90;;
14052;SDS011;7101;51.600;7.310;2024-03-02T02:14:33;2.97;;;1.13;;
14052;SDS011;7101;51.600;7.310;2024-03-02T02:17:01;2.25;;;1.02;;
14052;SDS011;7101;51.600;7.310;2024-03-02T02:19:28;1.95;;;1.02;;
14052;SDS011;7101;51.600;7.310;2024-03-02T02:21:56;1.35;;;1.05;;
14052;SDS011;7101;51.600;7.310;2024-03-02T02:24:23;1.80;;;1.00;;
14052;SDS011;7101;51.600;7.310;2024-03-02T02:26:50;1.02;;;0.88;;
14052;SDS011;7101;51.600;7.310;2024-03-02T02:29:17;2.33;;;1.10;;
14052;SDS011;7101;51.600;7.310;2024-03-02T02:31:43;2.08;;;1.05;;
14052;SDS011;7101;51.600;7.310;2024-03-02T02:34:10;1.42;;;1.00;;
14052;SDS011;7101;51.600;7.310;2024-03-02T02:36:37;2.13;;;1.00;;
14052;SDS011;7101;51.600;7.310;2024-03-02T02:39:07;1.65;;;1.27;;
14052;SDS011;7101;51.600;7.310;2024-03-02T02:41:37;1.55;;;1.02;;
14052;SDS011;7101;51.600;7.310;2024-03-02T02:44:04;2.20;;;1.08;;
14052;SDS011;7101;51.600;7.310;2024-03-02T02:46:31;1.98;;;0.90;;
14052;SDS011;7101;51.600;7.310;2024-03-02T02:48:58;1.00;;;0.80;;
14052;SDS011;7101;51.600;7.310;2024-03-02T02:51:25;1.30;;;0.90;;
14052;SDS011;7101;51.600;7.310;2024-03-02T02:53:51;1.80;;;1.00;;
14052;SDS011;7101;51.600;7.310;2024-03-02T02:56:20;2.70;;;0.90;;
14052;SDS011;7101;51.600;7.310;2024-03-02T02:58:53;2.45;;;0.93;;
14052;SDS011;7101;51.600;7.310;2024-03-02T03:01:19;2.70;;;1.25;;
14052;SDS011;7101;51.600;7.310;2024-03-02T03:03:46;2.00;;;1.10;;
14052;SDS011;7101;51.600;7.310;2024-03-02T03:06:13;1.45;;;0.95;;
14052;SDS011;7101;51.600;7.310;2024-03-02T03:08:40;1.27;;;1.10;;
14052;SDS011;7101;51.600;7.310;2024-03-02T03:11:06;2.03;;;1.15;;
14052;SDS011;7101;51.600;7.310;2024-03-02T03:13:34;1.23;;;0.90;;
14052;SDS011;7101;51.600;7.310;2024-03-02T03:16:02;1.52;;;1.00;;
14052;SDS011;7101;51.600;7.310;2024-03-02T03:18:29;2.75;;;1.10;;
14052;SDS011;7101;51.600;7.310;2024-03-02T03:20:55;1.10;;;0.88;;
14052;SDS011;7101;51.600;7.310;2024-03-02T03:23:22;2.05;;;1.30;;
14052;SDS011;7101;51.600;7.310;2024-03-02T03:25:51;2.97;;;1.05;;
14052;SDS011;7101;51.600;7.310;2024-03-02T03:28:17;2.67;;;1.13;;
14052;SDS011;7101;51.600;7.310;2024-03-02T03:30:45;2.58;;;1.08;;
14052;SDS011;7101;51.600;7.310;2024-03-02T03:33:12;2.60;;;0.93;;
14052;SDS011;7101;51.600;7.310;2024-03-02T03:35:39;2.30;;;1.10;;
14052;SDS011;7101;51.600;7.310;2024-03-02T03:38:06;1.50;;;0.88;;
14052;SDS011;7101;51.600;7.310;2024-03-02T03:40:32;2.97;;;1.00;;
14052;SDS011;7101;51.600;7.310;2024-03-02T03:42:59;1.55;;;0.60;;
14052;SDS011;7101;51.600;7.310;2024-03-02T03:45:26;3.65;;;0.90;;
14052;SDS011;7101;51.600;7.310;2024-03-02T03:47:55;3.05;;;1.00;;
14052;SDS011;7101;51.600;7.310;2024-03-02T03:50:22;1.50;;;1.13;;
14052;SDS011;7101;51.600;7.310;2024-03-02T03:52:49;2.35;;;0.85;;
14052;SDS011;7101;51.600;7.310;2024-03-02T03:55:15;1.98;;;1.08;;
14052;SDS011;7101;51.600;7.310;2024-03-02T03:57:42;1.67;;;1.00;;
14052;SDS011;7101;51.600;7.310;2024-03-02T04:00:08;3.17;;;1.08;;
14052;SDS011;7101;51.600;7.310;2024-03-02T04:02:37;4.65;;;1.33;;
14052;SDS011;7101;51.600;7.310;2024-03-02T04:05:05;1.95;;;1.00;;
14052;SDS011;7101;51.600;7.310;2024-03-02T04:07:34;2.20;;;1.10;;
14052;SDS011;7101;51.600;7.310;2024-03-02T04:10:05;3.80;;;1.20;;
14052;SDS011;7101;51.600;7.310;2024-03-02T04:12:33;3.05;;;1.00;;
14052;SDS011;7101;51.600;7.310;2024-03-02T04:15:01;4.63;;;1.10;;
14052;SDS011;7101;51.600;7.310;2024-03-02T04:17:29;1.63;;;1.00;;
14052;SDS011;7101;51.600;7.310;2024-03-02T04:19:57;1.88;;;1.10;;
14052;SDS011;7101;51.600;7.310;2024-03-02T04:22:26;3.25;;;1.00;;
14052;SDS011;7101;51.600;7.310;2024-03-02T04:24:52;2.13;;;1.20;;
14052;SDS011;7101;51.600;7.310;2024-03-02T04:27:19;2.67;;;1.20;;
14052;SDS011;7101;51.600;7.310;2024-03-02T04:29:46;3.45;;;1.23;;
14052;SDS011;7101;51.600;7.310;2024-03-02T04:32:13;2.42;;;1.10;;
14052;SDS011;7101;51.600;7.310;2024-03-02T04:34:40;1.75;;;1.25;;
14052;SDS011;7101;51.600;7.310;2024-03-02T04:37:06;2.30;;;1.20;;
14052;SDS011;7101;51.600;7.310;2024-03-02T04:39:35;4.85;;;1.30;;
14052;SDS011;7101;51.600;7.310;2024-03-02T04:42:03;1.50;;;1.23;;
14052;SDS011;7101;51.600;7.310;2024-03-02T04:44:30;2.85;;;1.05;;
14052;SDS011;7101;51.600;7.310;2024-03-02T04:46:57;1.85;;;1.08;;
14052;SDS011;7101;51.600;7.310;2024-03-02T04:49:24;2.05;;;0.80;;
14052;SDS011;7101;51.600;7.310;2024-03-02T04:51:50;3.58;;;1.00;;
14052;SDS011;7101;51.600;7.310;2024-03-02T04:54:18;2.13;;;1.20;;
14052;SDS011;7101;51.600;7.310;2024-03-02T04:56:46;1.33;;;0.82;;
14052;SDS011;7101;51.600;7.310;2024-03-02T04:59:15;2.28;;;0.90;;
14052;SDS011;7101;51.600;7.310;2024-03-02T05:01:43;1.02;;;0.93;;
14052;SDS011;7101;51.600;7.310;2024-03-02T05:04:10;2.00;;;1.10;;
14052;SDS011;7101;51.600;7.310;2024-03-02T05:06:37;1.20;;;0.90;;
14052;SDS011;7101;51.600;7.310;2024-03-02T05:09:05;1.90;;;1.00;;
14052;SDS011;7101;51.600;7.310;2024-03-02T05:11:32;2.03;;;1.10;;
14052;SDS011;7101;51.600;7.310;2024-03-02T05:14:26;1.77;;;0.90;;
14052;SDS011;7101;51.600;7.310;2024-03-02T05:16:53;1.42;;;0.82;;
14052;SDS011;7101;51.600;7.310;2024-03-02T05:19:20;1.98;;;1.23;;
14052;SDS011;7101;51.600;7.310;2024-03-02T05:21:47;3.45;;;1.10;;
14052;SDS011;7101;51.600;7.310;2024-03-02T05:24:14;1.75;;;0.80;;
14052;SDS011;7101;51.600;7.310;2024-03-02T05:26:41;1.33;;;0.90;;
14052;SDS011;7101;51.600;7.310;2024-03-02T05:29:08;3.22;;;1.10;;
14052;SDS011;7101;51.600;7.310;2024-03-02T05:31:36;2.30;;;1.10;;
14052;SDS011;7101;51.600;7.310;2024-03-02T05:34:03;1.50;;;0.80;;
14052;SDS011;7101;51.600;7.310;2024-03-02T05:36:30;2.28;;;0.90;;
14052;SDS011;7101;51.600;7.310;2024-03-02T05:38:57;2.65;;;0.90;;
14052;SDS011;7101;51.600;7.310;2024-03-02T05:41:23;4.10;;;1.13;;
14052;SDS011;7101;51.600;7.310;2024-03-02T05:43:50;1.73;;;0.88;;
14052;SDS011;7101;51.600;7.310;2024-03-02T05:46:17;1.20;;;1.00;;
14052;SDS011;7101;51.600;7.310;2024-03-02T05:48:45;2.83;;;1.20;;
14052;SDS011;7101;51.600;7.310;2024-03-02T05:51:12;5.57;;;1.58;;
14052;SDS011;7101;51.600;7.310;2024-03-02T05:53:40;3.75;;;1.30;;
14052;SDS011;7101;51.600;7.310;2024-03-02T05:56:07;2.42;;;1.40;;
14052;SDS011;7101;51.600;7.310;2024-03-02T05:58:33;2.92;;;1.52;;
14052;SDS011;7101;51.600;7.310;2024-03-02T06:01:13;2.13;;;1.38;;
14052;SDS011;7101;51.600;7.310;2024-03-02T06:03:40;2.45;;;1.52;;
14052;SDS011;7101;51.600;7.310;2024-03-02T06:06:08;2.35;;;1.27;;
14052;SDS011;7101;51.600;7.310;2024-03-02T06:08:35;6.85;;;1.40;;
14052;SDS011;7101;51.600;7.310;2024-03-02T06:11:08;3.10;;;1.30;;
14052;SDS011;7101;51.600;7.310;2024-03-02T06:13:35;2.50;;;1.38;;
14052;SDS011;7101;51.600;7.310;2024-03-02T06:16:01;2.03;;;1.20;;
14052;SDS011;7101;51.600;7.310;2024-03-02T06:18:28;2.15;;;1.13;;
14052;SDS011;7101;51.600;7.310;2024-03-02T06:20:55;2.72;;;1.38;;
14052;SDS011;7101;51.600;7.310;2024-03-02T06:23:23;1.77;;;1.20;;
14052;SDS011;7101;51.600;7.310;2024-03-02T06:25:50;2.28;;;1.17;;
14052;SDS011;7101;51.600;7.310;2024-03-02T06:28:17;1.95;;;1.20;;
14052;SDS011;7101;51.600;7.310;2024-03-02T06:30:43;2.30;;;1.20;;
14052;SDS011;7101;51.600;7.310;2024-03-02T06:33:11;2.05;;;1.40;;
14052;SDS011;7101;51.600;7.310;2024-03-02T06:35:38;4.20;;;1.50;;
14052;SDS011;7101;51.600;7.310;2024-03-02T06:38:05;1.70;;;1.25;;
14052;SDS011;7101;51.600;7.310;2024-03-02T06:40:33;6.45;;;2.00;;
14052;SDS011;7101;51.600;7.310;2024-03-02T06:43:01;3.28;;;1.58;;
14052;SDS011;7101;51.600;7.310;2024-03-02T06:45:28;5.15;;;1.90;;
14052;SDS011;7101;51.600;7.310;2024-03-02T06:47:55;2.75;;;1.60;;
14052;SDS011;7101;51.600;7.310;2024-03-02T06:50:22;2.67;;;1.30;;
14052;SDS011;7101;51.600;7.310;2024-03-02T06:52:49;3.30;;;1.55;;
14052;SDS011;7101;51.600;7.310;2024-03-02T06:55:15;3.88;;;1.73;;
14052;SDS011;7101;51.600;7.310;2024-03-02T06:57:44;2.60;;;1.40;;
14052;SDS011;7101;51.600;7.310;2024-03-02T07:00:12;2.40;;;1.35;;
14052;SDS011;7101;51.600;7.310;2024-03-02T07:02:39;2.97;;;1.20;;
14052;SDS011;7101;51.600;7.310;2024-03-02T07:05:06;2.95;;;1.40;;
14052;SDS011;7101;51.600;7.310;2024-03-02T07:07:33;3.60;;;1.70;;
14052;SDS011;7101;51.600;7.310;2024-03-02T07:10:01;2.40;;;1.38;;
14052;SDS011;7101;51.600;7.310;2024-03-02T07:12:28;3.33;;;1.58;;
14052;SDS011;7101;51.600;7.310;2024-03-02T07:14:57;3.13;;;1.88;;
14052;SDS011;7101;51.600;7.310;2024-03-02T07:17:50;3.80;;;1.70;;
14052;SDS011;7101;51.600;7.310;2024-03-02T07:20:17;3.35;;;1.58;;
14052;SDS011;7101;51.600;7.310;2024-03-02T07:22:43;3.15;;;1.70;;
14052;SDS011;7101;51.600;7.310;2024-03-02T07:25:10;5.20;;;2.65;;
14052;SDS011;7101;51.600;7.310;2024-03-02T07:27:37;5.55;;;2.50;;
14052;SDS011;7101;51.600;7.310;2024-03-02T07:30:06;5.70;;;2.58;;
14052;SDS011;7101;51.600;7.310;2024-03-02T07:32:34;4.10;;;2.22;;
14052;SDS011;7101;51.600;7.310;2024-03-02T07:35:00;3.95;;;1.90;;
14052;SDS011;7101;51.600;7.310;2024-03-02T07:37:28;3.83;;;2.03;;
14052;SDS011;7101;51.600;7.310;2024-03-02T07:39:55;3.85;;;2.10;;
14052;SDS011;7101;51.600;7.310;2024-03-02T07:42:22;5.63;;;2.97;;
14052;SDS011;7101;51.600;7.310;2024-03-02T07:44:49;4.78;;;1.92;;
14052;SDS011;7101;51.600;7.310;2024-03-02T07:47:17;6.20;;;1.80;;
14052;SDS011;7101;51.600;7.310;2024-03-02T07:49:44;3.33;;;1.77;;
14052;SDS011;7101;51.600;7.310;2024-03-02T07:52:12;2.90;;;1.75;;
14052;SDS011;7101;51.600;7.310;2024-03-02T07:54:39;4.15;;;2.03;;
14052;SDS011;7101;51.600;7.310;2024-03-02T07:57:05;4.10;;;2.08;;
14052;SDS011;7101;51.600;7.310;2024-03-02T07:59:33;4.78;;;2.15;;
14052;SDS011;7101;51.600;7.310;2024-03-02T08:02:00;4.07;;;1.88;;
14052;SDS011;7101;51.600;7.310;2024-03-02T08:04:28;3.13;;;1.92;;
14052;SDS011;7101;51.600;7.310;2024-03-02T08:06:55;3.53;;;1.85;;
14052;SDS011;7101;51.600;7.310;2024-03-02T08:09:22;3.83;;;2.00;;
14052;SDS011;7101;51.600;7.310;2024-03-02T08:11:49;3.75;;;1.67;;
14052;SDS011;7101;51.600;7.310;2024-03-02T08:14:16;4.47;;;1.90;;
14052;SDS011;7101;51.600;7.310;2024-03-02T08:16:42;2.80;;;1.65;;
14052;SDS011;7101;51.600;7.310;2024-03-02T08:19:09;4.63;;;1.95;;
14052;SDS011;7101;51.600;7.310;2024-03-02T08:21:38;5.22;;;2.15;;
14052;SDS011;7101;51.600;7.310;2024-03-02T08:24:05;4.10;;;1.60;;
14052;SDS011;7101;51.600;7.310;2024-03-02T08:26:33;2.92;;;1.50;;
14052;SDS011;7101;51.600;7.310;2024-03-02T08:29:00;3.97;;;2.03;;
14052;SDS011;7101;51.600;7.310;2024-03-02T08:31:28;3.55;;;1.92;;
14052;SDS011;7101;51.600;7.310;2024-03-02T08:33:55;3.92;;;1.60;;
14052;SDS011;7101;51.600;7.310;2024-03-02T08:36:23;3.88;;;1.63;;
14052;SDS011;7101;51.600;7.310;2024-03-02T08:38:52;3.53;;;1.45;;
14052;SDS011;7101;51.600;7.310;2024-03-02T08:41:19;2.40;;;1.50;;
14052;SDS011;7101;51.600;7.310;2024-03-02T08:43:45;4.13;;;1.60;;
14052;SDS011;7101;51.600;7.310;2024-03-02T08:46:12;2.55;;;1.52;;
14052;SDS011;7101;51.600;7.310;2024-03-02T08:48:39;4.90;;;1.80;;
14052;SDS011;7101;51.600;7.310;2024-03-02T08:51:06;4.07;;;1.88;;
14052;SDS011;7101;51.600;7.310;2024-03-02T08:53:35;3.25;;;1.67;;
14052;SDS011;7101;51.600;7.310;2024-03-02T08:56:04;7.22;;;1.58;;
14052;SDS011;7101;51.600;7.310;2024-03-02T08:58:31;4.20;;;1.65;;
14052;SDS011;7101;51.600;7.310;2024-03-02T09:00:58;2.80;;;1.50;;
14052;SDS011;7101;51.600;7.310;2024-03-02T09:03:25;3.20;;;1.40;;
14052;SDS011;7101;51.600;7.310;2024-03-02T09:05:52;2.85;;;1.60;;
14052;SDS011;7101;51.600;7.310;2024-03-02T09:08:18;5.03;;;1.50;;
14052;SDS011;7101;51.600;7.310;2024-03-02T09:10:46;2.60;;;1.27;;
14052;SDS011;7101;51.600;7.310;2024-03-02T09:13:14;2.90;;;1.55;;
14052;SDS011;7101;51.600;7.310;2024-03-02T09:15:41;1.67;;;1.40;;
14052;SDS011;7101;51.600;7.310;2024-03-02T09:18:09;3.63;;;1.58;;
14052;SDS011;7101;51.600;7.310;2024-03-02T09:20:36;2.67;;;1.20;;
14052;SDS011;7101;51.600;7.310;2024-03-02T09:23:03;1.80;;;1.17;;
14052;SDS011;7101;51.600;7.310;2024-03-02T09:25:30;3.10;;;1.70;;
14052;SDS011;7101;51.600;7.310;2024-03-02T09:27:56;3.35;;;1.63;;
14052;SDS011;7101;51.600;7.310;2024-03-02T09:30:24;1.35;;;1.25;;
14052;SDS011;7101;51.600;7.310;2024-03-02T09:32:51;1.73;;;1.40;;
14052;SDS011;7101;51.600;7.310;2024-03-02T09:35:18;3.67;;;1.35;;
14052;SDS011;7101;51.600;7.310;2024-03-02T09:37:45;3.65;;;1.30;;
14052;SDS011;7101;51.600;7.310;2024-03-02T09:40:12;2.13;;;1.33;;
14052;SDS011;7101;51.600;7.310;2024-03-02T09:42:41;2.00;;;1.10;;
14052;SDS011;7101;51.600;7.310;2024-03-02T09:45:09;2.47;;;1.30;;
14052;SDS011;7101;51.600;7.310;2024-03-02T09:47:37;2.00;;;1.30;;
14052;SDS011;7101;51.600;7.310;2024-03-02T09:50:04;3.53;;;1.48;;
14052;SDS011;7101;51.600;7.310;2024-03-02T09:52:32;2.45;;;1.20;;
14052;SDS011;7101;51.600;7.310;2024-03-02T09:54:59;1.45;;;1.10;;
14052;SDS011;7101;51.600;7.310;2024-03-02T09:57:26;1.33;;;0.80;;
14052;SDS011;7101;51.600;7.310;2024-03-02T09:59:53;2.75;;;1.30;;
14052;SDS011;7101;51.600;7.310;2024-03-02T10:02:20;1.10;;;0.93;;
14052;SDS011;7101;51.600;7.310;2024-03-02T10:04:50;1.70;;;0.90;;
14052;SDS011;7101;51.600;7.310;2024-03-02T10:07:17;2.53;;;1.00;;
14052;SDS011;7101;51.600;7.310;2024-03-02T10:09:45;0.93;;;0.80;;
14052;SDS011;7101;51.600;7.310;2024-03-02T10:12:14;1.45;;;0.80;;
14052;SDS011;7101;51.600;7.310;2024-03-02T10:14:42;1.52;;;1.02;;
14052;SDS011;7101;51.600;7.310;2024-03-02T10:17:11;1.77;;;0.70;;
14052;SDS011;7101;51.600;7.310;2024-03-02T10:19:40;1.23;;;0.90;;
14052;SDS011;7101;51.600;7.310;2024-03-02T10:22:09;1.38;;;0.88;;
14052;SDS011;7101;51.600;7.310;2024-03-02T10:24:36;2.30;;;1.00;;
14052;SDS011;7101;51.600;7.310;2024-03-02T10:27:08;4.22;;;1.10;;
14052;SDS011;7101;51.600;7.310;2024-03-02T10:29:38;1.40;;;0.82;;
14052;SDS011;7101;51.600;7.310;2024-03-02T10:32:08;1.88;;;0.80;;
14052;SDS011;7101;51.600;7.310;2024-03-02T10:34:36;1.65;;;0.95;;
14052;SDS011;7101;51.600;7.310;2024-03-02T10:37:03;0.57;;;0.50;;
14052;SDS011;7101;51.600;7.310;2024-03-02T10:39:32;6.05;;;1.00;;
14052;SDS011;7101;51.600;7.310;2024-03-02T10:42:01;1.65;;;0.70;;
14052;SDS011;7101;51.600;7.310;2024-03-02T10:44:29;0.70;;;0.70;;
14052;SDS011;7101;51.600;7.310;2024-03-02T10:46:58;1.85;;;0.60;;
14052;SDS011;7101;51.600;7.310;2024-03-02T10:49:29;1.25;;;0.80;;
14052;SDS011;7101;51.600;7.310;2024-03-02T10:51:56;0.95;;;0.80;;
14052;SDS011;7101;51.600;7.310;2024-03-02T10:54:23;1.73;;;0.63;;
14052;SDS011;7101;51.600;7.310;2024-03-02T10:56:58;2.75;;;0.90;;
14052;SDS011;7101;51.600;7.310;2024-03-02T10:59:31;1.98;;;0.70;;
14052;SDS011;7101;51.600;7.310;2024-03-02T11:02:00;1.38;;;0.70;;
14052;SDS011;7101;51.600;7.310;2024-03-02T11:04:28;0.60;;;0.60;;
14052;SDS011;7101;51.600;7.310;2024-03-02T11:06:58;1.13;;;0.77;;
14052;SDS011;7101;51.600;7.310;2024-03-02T11:09:29;0.95;;;0.60;;
14052;SDS011;7101;51.600;7.310;2024-03-02T11:11:59;1.48;;;0.77;;
14052;SDS011;7101;51.600;7.310;2024-03-02T11:14:30;1.33;;;0.85;;
14052;SDS011;7101;51.600;7.310;2024-03-02T11:16:58;3.47;;;0.90;;
14052;SDS011;7101;51.600;7.310;2024-03-02T11:19:26;1.67;;;0.90;;
14052;SDS011;7101;51.600;7.310;2024-03-02T11:21:54;1.50;;;0.82;;
14052;SDS011;7101;51.600;7.310;2024-03-02T11:24:28;1.70;;;0.88;;
14052;SDS011;7101;51.600;7.310;2024-03-02T11:27:00;2.55;;;1.20;;
14052;SDS011;7101;51.600;7.310;2024-03-02T11:29:43;1.42;;;0.90;;
14052;SDS011;7101;51.600;7.310;2024-03-02T11:32:14;4.30;;;1.08;;
14052;SDS011;7101;51.600;7.310;2024-03-02T11:34:42;1.70;;;0.70;;
14052;SDS011;7101;51.600;7.310;2024-03-02T11:37:11;1.52;;;0.80;;
14052;SDS011;7101;51.600;7.310;2024-03-02T11:39:38;3.25;;;1.00;;
14052;SDS011;7101;51.600;7.310;2024-03-02T11:42:07;1.63;;;0.82;;
14052;SDS011;7101;51.600;7.310;2024-03-02T11:44:35;1.30;;;0.90;;
14052;SDS011;7101;51.600;7.310;2024-03-02T11:47:03;2.53;;;0.90;;
14052;SDS011;7101;51.600;7.310;2024-03-02T11:49:38;3.05;;;0.73;;
14052;SDS011;7101;51.600;7.310;2024-03-02T11:52:07;2.08;;;0.65;;
14052;SDS011;7101;51.600;7.310;2024-03-02T11:54:35;2.10;;;0.80;;
14052;SDS011;7101;51.600;7.310;2024-03-02T11:57:05;1.33;;;0.90;;
14052;SDS011;7101;51.600;7.310;2024-03-02T11:59:34;1.25;;;0.60;;
14052;SDS011;7101;51.600;7.310;2024-03-02T12:02:01;1.55;;;0.70;;
14052;SDS011;7101;51.600;7.310;2024-03-02T12:04:29;2.25;;;0.93;;
14052;SDS011;7101;51.600;7.310;2024-03-02T12:06:57;1.10;;;0.70;;
14052;SDS011;7101;51.600;7.310;2024-03-02T12:09:25;1.25;;;0.80;;
14052;SDS011;7101;51.600;7.310;2024-03-02T12:12:02;1.33;;;0.65;;
14052;SDS011;7101;51.600;7.310;2024-03-02T12:14:30;1.35;;;0.70;;
14052;SDS011;7101;51.600;7.310;2024-03-02T12:16:59;1.10;;;0.90;;
14052;SDS011;7101;51.600;7.310;2024-03-02T12:19:26;1.70;;;0.93;;
14052;SDS011;7101;51.600;7.310;2024-03-02T12:21:55;0.93;;;0.70;;
14052;SDS011;7101;51.600;7.310;2024-03-02T12:24:23;1.58;;;0.90;;
14052;SDS011;7101;51.600;7.310;2024-03-02T12:26:50;3.53;;;0.95;;
14052;SDS011;7101;51.600;7.310;2024-03-02T12:29:18;2.65;;;0.75;;
14052;SDS011;7101;51.600;7.310;2024-03-02T12:31:45;0.95;;;0.73;;
14052;SDS011;7101;51.600;7.310;2024-03-02T12:34:16;4.45;;;0.95;;
14052;SDS011;7101;51.600;7.310;2024-03-02T12:36:44;1.52;;;0.90;;
14052;SDS011;7101;51.600;7.310;2024-03-02T12:39:14;1.88;;;0.90;;
14052;SDS011;7101;51.600;7.310;2024-03-02T12:41:42;2.85;;;1.05;;
14052;SDS011;7101;51.600;7.310;2024-03-02T12:44:09;1.98;;;0.90;;
14052;SDS011;7101;51.600;7.310;2024-03-02T12:46:37;2.13;;;0.70;;
14052;SDS011;7101;51.600;7.310;2024-03-02T12:49:08;2.15;;;0.80;;
14052;SDS011;7101;51.600;7.310;2024-03-02T12:51:38;1.35;;;0.70;;
14052;SDS011;7101;51.600;7.310;2024-03-02T12:54:06;2.72;;;0.90;;
14052;SDS011;7101;51.600;7.310;2024-03-02T12:56:33;1.35;;;0.75;;
14052;SDS011;7101;51.600;7.310;2024-03-02T12:59:02;1.15;;;0.80;;
14052;SDS011;7101;51.600;7.310;2024-03-02T13:01:29;1.50;;;0.80;;
14052;SDS011;7101;51.600;7.310;2024-03-02T13:03:57;1.05;;;0.82;;
14052;SDS011;7101;51.600;7.310;2024-03-02T13:06:25;1.98;;;1.30;;
14052;SDS011;7101;51.600;7.310;2024-03-02T13:08:55;2.40;;;0.80;;
14052;SDS011;7101;51.600;7.310;2024-03-02T13:11:22;2.08;;;0.93;;
14052;SDS011;7101;51.600;7.310;2024-03-02T13:13:49;3.80;;;1.55;;
14052;SDS011;7101;51.600;7.310;2024-03-02T13:16:16;3.38;;;1.80;;
14052;SDS011;7101;51.600;7.310;2024-03-02T13:18:45;1.88;;;1.08;;
14052;SDS011;7101;51.600;7.310;2024-03-02T13:21:12;1.15;;;0.95;;
14052;SDS011;7101;51.600;7.310;2024-03-02T13:23:39;0.73;;;0.73;;
14052;SDS011;7101;51.600;7.310;2024-03-02T13:26:07;3.13;;;0.93;;
14052;SDS011;7101;51.600;7.310;2024-03-02T13:28:35;1.20;;;0.80;;
14052;SDS011;7101;51.600;7.310;2024-03-02T13:31:03;0.93;;;0.77;;
14052;SDS011;7101;51.600;7.310;2024-03-02T13:33:30;1.17;;;0.73;;
14052;SDS011;7101;51.600;7.310;2024-03-02T13:35:58;1.20;;;0.95;;
14052;SDS011;7101;51.600;7.310;2024-03-02T13:38:24;0.82;;;0.70;;
14052;SDS011;7101;51.600;7.310;2024-03-02T13:40:51;0.75;;;0.60;;
14052;SDS011;7101;51.600;7.310;2024-03-02T13:43:19;1.10;;;0.50;;
14052;SDS011;7101;51.600;7.310;2024-03-02T13:45:47;1.77;;;0.80;;
14052;SDS011;7101;51.600;7.310;2024-03-02T13:48:14;1.33;;;0.70;;
14052;SDS011;7101;51.600;7.310;2024-03-02T13:50:42;0.75;;;0.47;;
14052;SDS011;7101;51.600;7.310;2024-03-02T13:53:10;2.17;;;0.68;;
14052;SDS011;7101;51.600;7.310;2024-03-02T13:55:37;0.60;;;0.60;;
14052;SDS011;7101;51.600;7.310;2024-03-02T13:58:04;1.30;;;0.57;;
14052;SDS011;7101;51.600;7.310;2024-03-02T14:00:32;1.45;;;0.77;;
14052;SDS011;7101;51.600;7.310;2024-03-02T14:02:59;0.63;;;0.60;;
14052;SDS011;7101;51.600;7.310;2024-03-02T14:05:26;1.38;;;0.70;;
14052;SDS011;7101;51.600;7.310;2024-03-02T14:07:53;0.50;;;0.40;;
14052;SDS011;7101;51.600;7.310;2024-03-02T14:10:20;0.77;;;0.43;;
14052;SDS011;7101;51.600;7.310;2024-03-02T14:12:48;1.23;;;0.60;;
14052;SDS011;7101;51.600;7.310;2024-03-02T14:15:14;1.58;;;0.90;;
14052;SDS011;7101;51.600;7.310;2024-03-02T14:17:42;0.60;;;0.60;;
14052;SDS011;7101;51.600;7.310;2024-03-02T14:20:10;1.23;;;0.70;;
14052;SDS011;7101;51.600;7.310;2024-03-02T14:22:38;0.98;;;0.77;;
14052;SDS011;7101;51.600;7.310;2024-03-02T14:25:05;0.77;;;0.70;;
14052;SDS011;7101;51.600;7.310;2024-03-02T14:27:33;28.65;;;3.22;;
14052;SDS011;7101;51.600;7.310;2024-03-02T14:30:00;3.30;;;0.95;;
14052;SDS011;7101;51.600;7.310;2024-03-02T14:32:27;10.82;;;1.00;;
14052;SDS011;7101;51.600;7.310;2024-03-02T14:34:55;1.02;;;0.63;;
14052;SDS011;7101;51.600;7.310;2024-03-02T14:37:22;1.13;;;0.70;;
14052;SDS011;7101;51.600;7.310;2024-03-02T14:39:50;0.68;;;0.55;;
14052;SDS011;7101;51.600;7.310;2024-03-02T14:42:16;3.42;;;0.40;;
14052;SDS011;7101;51.600;7.310;2024-03-02T14:44:43;1.92;;;0.88;;
14052;SDS011;7101;51.600;7.310;2024-03-02T14:47:10;0.95;;;0.70;;
14052;SDS011;7101;51.600;7.310;2024-03-02T14:49:37;0.50;;;0.40;;
14052;SDS011;7101;51.600;7.310;2024-03-02T14:52:06;6.60;;;0.82;;
14052;SDS011;7101;51.600;7.310;2024-03-02T14:54:34;9.63;;;0.93;;
14052;SDS011;7101;51.600;7.310;2024-03-02T14:57:01;1.40;;;0.60;;
14052;SDS011;7101;51.600;7.310;2024-03-02T14:59:28;0.40;;;0.40;;
14052;SDS011;7101;51.600;7.310;2024-03-02T15:01:59;1.58;;;0.50;;
14052;SDS011;7101;51.600;7.310;2024-03-02T15:04:27;1.10;;;0.70;;